Anniston Metropolitan Airport Anniston US
ICAO: KANB
IATA: ANB
Category: Medium
Scheduled Services: No

Elevation: 612 ft
TransAlt. 18000 ft.

Airport Communications:
BIRMINGHAM APP/DEP:125.45
ASOS:119.675
CTAF:123.6
RDO:122.2
UNICOM:123

KANB Zoom In..

If you have problems with the map follow the link
https://www.worldairports.se/pages/airport.php?
ICAO=KANB

Runways:

(A) RW 05 length 7000 ft width 150 ft
ILS 111.50 / hdg 49

(B) RW 23 length 7000 ft width 150 ft
---- / hdg 229

Location; KANB
Day. 08 / Time. 12.53 Zulu
* Altimeter: 30.27
* Temperature: 09° c. 48.2°f.
* Wind from: 020° Speed 05 kn.
Dewpoint: 06° c.
Visibility: 10 Statute Miles.
Clouds: Few 4200 ft.
Clouds: Broken 6000 ft.

KANB 081253Z AUTO 02005KT 10SM FEW042 BKN060 09/06 A3027 RMK AO2 SLP254 T00940056


Wind From 020°
Speed 05 kn.

 
 
jpsmedia worldairports.se 2019   terms of use